sensor_id;sensor_type;location;lat;lon;timestamp;P1;durP1;ratioP1;P2;durP2;ratioP2
14688;SDS011;7432;48.728;9.154;2023-01-13T00:00:45;4.00;;;3.10;;
14688;SDS011;7432;48.728;9.154;2023-01-13T00:03:13;3.30;;;2.97;;
14688;SDS011;7432;48.728;9.154;2023-01-13T00:05:39;3.00;;;2.80;;
14688;SDS011;7432;48.728;9.154;2023-01-13T00:08:06;4.20;;;3.07;;
14688;SDS011;7432;48.728;9.154;2023-01-13T00:10:32;2.93;;;2.73;;
14688;SDS011;7432;48.728;9.154;2023-01-13T00:12:58;2.77;;;2.57;;
14688;SDS011;7432;48.728;9.154;2023-01-13T00:15:26;3.07;;;2.77;;
14688;SDS011;7432;48.728;9.154;2023-01-13T00:17:52;3.60;;;3.10;;
14688;SDS011;7432;48.728;9.154;2023-01-13T00:20:20;3.27;;;2.97;;
14688;SDS011;7432;48.728;9.154;2023-01-13T00:22:46;2.80;;;2.53;;
14688;SDS011;7432;48.728;9.154;2023-01-13T00:25:12;3.33;;;2.87;;
14688;SDS011;7432;48.728;9.154;2023-01-13T00:27:39;3.00;;;2.80;;
14688;SDS011;7432;48.728;9.154;2023-01-13T00:30:06;3.10;;;2.80;;
14688;SDS011;7432;48.728;9.154;2023-01-13T00:32:33;4.83;;;3.00;;
14688;SDS011;7432;48.728;9.154;2023-01-13T00:35:00;3.10;;;2.90;;
14688;SDS011;7432;48.728;9.154;2023-01-13T00:37:27;3.13;;;2.80;;
14688;SDS011;7432;48.728;9.154;2023-01-13T00:39:54;3.00;;;2.70;;
14688;SDS011;7432;48.728;9.154;2023-01-13T00:42:21;2.87;;;2.67;;
14688;SDS011;7432;48.728;9.154;2023-01-13T00:45:05;2.60;;;2.40;;
14688;SDS011;7432;48.728;9.154;2023-01-13T00:47:32;2.90;;;2.70;;
14688;SDS011;7432;48.728;9.154;2023-01-13T00:49:58;3.13;;;2.60;;
14688;SDS011;7432;48.728;9.154;2023-01-13T00:52:25;2.50;;;2.33;;
14688;SDS011;7432;48.728;9.154;2023-01-13T00:54:52;3.20;;;2.97;;
14688;SDS011;7432;48.728;9.154;2023-01-13T00:57:19;4.50;;;2.97;;
14688;SDS011;7432;48.728;9.154;2023-01-13T00:59:45;2.80;;;2.60;;
14688;SDS011;7432;48.728;9.154;2023-01-13T01:02:12;4.30;;;3.10;;
14688;SDS011;7432;48.728;9.154;2023-01-13T01:04:38;2.97;;;2.77;;
14688;SDS011;7432;48.728;9.154;2023-01-13T01:07:04;3.07;;;2.73;;
14688;SDS011;7432;48.728;9.154;2023-01-13T01:09:31;4.80;;;3.10;;
14688;SDS011;7432;48.728;9.154;2023-01-13T01:12:00;3.30;;;3.10;;
14688;SDS011;7432;48.728;9.154;2023-01-13T01:14:26;3.30;;;3.10;;
14688;SDS011;7432;48.728;9.154;2023-01-13T01:16:53;3.37;;;2.90;;
14688;SDS011;7432;48.728;9.154;2023-01-13T01:19:19;2.73;;;2.60;;
14688;SDS011;7432;48.728;9.154;2023-01-13T01:21:46;3.37;;;3.07;;
14688;SDS011;7432;48.728;9.154;2023-01-13T01:24:12;3.30;;;3.10;;
14688;SDS011;7432;48.728;9.154;2023-01-13T01:26:40;3.40;;;3.10;;
14688;SDS011;7432;48.728;9.154;2023-01-13T01:29:08;2.90;;;2.70;;
14688;SDS011;7432;48.728;9.154;2023-01-13T01:31:37;3.53;;;3.23;;
14688;SDS011;7432;48.728;9.154;2023-01-13T01:34:03;6.67;;;3.73;;
14688;SDS011;7432;48.728;9.154;2023-01-13T01:36:30;2.93;;;2.73;;
14688;SDS011;7432;48.728;9.154;2023-01-13T01:38:58;2.93;;;2.73;;
14688;SDS011;7432;48.728;9.154;2023-01-13T01:41:26;4.27;;;3.10;;
14688;SDS011;7432;48.728;9.154;2023-01-13T01:43:55;3.03;;;2.83;;
14688;SDS011;7432;48.728;9.154;2023-01-13T01:46:29;3.73;;;3.03;;
14688;SDS011;7432;48.728;9.154;2023-01-13T01:48:58;4.20;;;3.00;;
14688;SDS011;7432;48.728;9.154;2023-01-13T01:51:30;2.80;;;2.70;;
14688;SDS011;7432;48.728;9.154;2023-01-13T01:53:59;2.87;;;2.77;;
14688;SDS011;7432;48.728;9.154;2023-01-13T01:56:27;3.07;;;2.80;;
14688;SDS011;7432;48.728;9.154;2023-01-13T01:58:55;3.23;;;2.93;;
14688;SDS011;7432;48.728;9.154;2023-01-13T02:01:21;3.07;;;2.87;;
14688;SDS011;7432;48.728;9.154;2023-01-13T02:03:51;2.93;;;2.73;;
14688;SDS011;7432;48.728;9.154;2023-01-13T02:06:22;3.33;;;2.83;;
14688;SDS011;7432;48.728;9.154;2023-01-13T02:08:50;3.33;;;2.93;;
14688;SDS011;7432;48.728;9.154;2023-01-13T02:11:26;3.40;;;2.77;;
14688;SDS011;7432;48.728;9.154;2023-01-13T02:14:11;3.10;;;2.80;;
14688;SDS011;7432;48.728;9.154;2023-01-13T02:16:38;2.90;;;2.70;;
14688;SDS011;7432;48.728;9.154;2023-01-13T02:19:18;3.50;;;3.17;;
14688;SDS011;7432;48.728;9.154;2023-01-13T02:22:16;3.00;;;2.80;;
14688;SDS011;7432;48.728;9.154;2023-01-13T02:25:14;3.27;;;3.00;;
14688;SDS011;7432;48.728;9.154;2023-01-13T02:27:59;3.43;;;2.47;;
14688;SDS011;7432;48.728;9.154;2023-01-13T02:30:38;4.07;;;2.83;;
14688;SDS011;7432;48.728;9.154;2023-01-13T02:33:46;3.00;;;2.80;;
14688;SDS011;7432;48.728;9.154;2023-01-13T02:36:26;2.80;;;2.70;;
14688;SDS011;7432;48.728;9.154;2023-01-13T02:38:57;3.23;;;2.77;;
14688;SDS011;7432;48.728;9.154;2023-01-13T02:41:30;3.13;;;2.90;;
14688;SDS011;7432;48.728;9.154;2023-01-13T02:44:23;4.73;;;3.17;;
14688;SDS011;7432;48.728;9.154;2023-01-13T02:46:54;3.10;;;2.80;;
14688;SDS011;7432;48.728;9.154;2023-01-13T02:49:27;3.60;;;2.83;;
14688;SDS011;7432;48.728;9.154;2023-01-13T02:52:01;3.30;;;3.00;;
14688;SDS011;7432;48.728;9.154;2023-01-13T02:54:34;2.87;;;2.67;;
14688;SDS011;7432;48.728;9.154;2023-01-13T02:57:04;3.40;;;3.10;;
14688;SDS011;7432;48.728;9.154;2023-01-13T02:59:35;2.97;;;2.83;;
14688;SDS011;7432;48.728;9.154;2023-01-13T03:02:04;3.00;;;2.80;;
14688;SDS011;7432;48.728;9.154;2023-01-13T03:04:44;3.77;;;3.07;;
14688;SDS011;7432;48.728;9.154;2023-01-13T03:07:16;3.20;;;3.00;;
14688;SDS011;7432;48.728;9.154;2023-01-13T03:09:57;3.50;;;3.20;;
14688;SDS011;7432;48.728;9.154;2023-01-13T03:12:32;3.07;;;2.87;;
14688;SDS011;7432;48.728;9.154;2023-01-13T03:15:10;2.90;;;2.70;;
14688;SDS011;7432;48.728;9.154;2023-01-13T03:17:45;3.40;;;3.20;;
14688;SDS011;7432;48.728;9.154;2023-01-13T03:20:17;4.10;;;3.17;;
14688;SDS011;7432;48.728;9.154;2023-01-13T03:22:47;3.50;;;3.20;;
14688;SDS011;7432;48.728;9.154;2023-01-13T03:25:21;3.33;;;2.93;;
14688;SDS011;7432;48.728;9.154;2023-01-13T03:27:51;3.10;;;2.90;;
14688;SDS011;7432;48.728;9.154;2023-01-13T03:30:21;3.17;;;2.87;;
14688;SDS011;7432;48.728;9.154;2023-01-13T03:32:56;3.10;;;2.90;;
14688;SDS011;7432;48.728;9.154;2023-01-13T03:35:28;3.73;;;3.43;;
14688;SDS011;7432;48.728;9.154;2023-01-13T03:37:59;3.70;;;3.23;;
14688;SDS011;7432;48.728;9.154;2023-01-13T03:40:31;3.20;;;3.00;;
14688;SDS011;7432;48.728;9.154;2023-01-13T03:43:01;3.40;;;3.20;;
14688;SDS011;7432;48.728;9.154;2023-01-13T03:45:53;3.37;;;3.17;;
14688;SDS011;7432;48.728;9.154;2023-01-13T03:48:25;3.60;;;3.33;;
14688;SDS011;7432;48.728;9.154;2023-01-13T03:50:56;4.47;;;3.47;;
14688;SDS011;7432;48.728;9.154;2023-01-13T03:53:28;2.83;;;2.60;;
14688;SDS011;7432;48.728;9.154;2023-01-13T03:56:00;3.20;;;3.00;;
14688;SDS011;7432;48.728;9.154;2023-01-13T03:58:34;3.73;;;3.20;;
14688;SDS011;7432;48.728;9.154;2023-01-13T04:01:06;3.40;;;3.10;;
14688;SDS011;7432;48.728;9.154;2023-01-13T04:03:41;3.00;;;2.67;;
14688;SDS011;7432;48.728;9.154;2023-01-13T04:06:13;3.23;;;2.80;;
14688;SDS011;7432;48.728;9.154;2023-01-13T04:08:43;3.27;;;2.80;;
14688;SDS011;7432;48.728;9.154;2023-01-13T04:11:16;3.40;;;3.10;;
14688;SDS011;7432;48.728;9.154;2023-01-13T04:13:47;3.73;;;3.30;;
14688;SDS011;7432;48.728;9.154;2023-01-13T04:16:15;3.40;;;3.20;;
14688;SDS011;7432;48.728;9.154;2023-01-13T04:18:42;3.07;;;2.77;;
14688;SDS011;7432;48.728;9.154;2023-01-13T04:21:09;4.20;;;2.83;;
14688;SDS011;7432;48.728;9.154;2023-01-13T04:23:35;3.60;;;3.30;;
14688;SDS011;7432;48.728;9.154;2023-01-13T04:26:01;3.73;;;3.53;;
14688;SDS011;7432;48.728;9.154;2023-01-13T04:28:28;3.50;;;3.30;;
14688;SDS011;7432;48.728;9.154;2023-01-13T04:30:54;4.80;;;3.50;;
14688;SDS011;7432;48.728;9.154;2023-01-13T04:33:21;4.00;;;3.70;;
14688;SDS011;7432;48.728;9.154;2023-01-13T04:35:49;3.70;;;3.40;;
14688;SDS011;7432;48.728;9.154;2023-01-13T04:38:17;3.63;;;3.33;;
14688;SDS011;7432;48.728;9.154;2023-01-13T04:40:44;3.83;;;3.43;;
14688;SDS011;7432;48.728;9.154;2023-01-13T04:43:11;3.53;;;3.30;;
14688;SDS011;7432;48.728;9.154;2023-01-13T04:45:39;3.50;;;3.30;;
14688;SDS011;7432;48.728;9.154;2023-01-13T04:48:06;3.20;;;3.00;;
14688;SDS011;7432;48.728;9.154;2023-01-13T04:50:33;3.83;;;3.53;;
14688;SDS011;7432;48.728;9.154;2023-01-13T04:53:01;3.53;;;3.33;;
14688;SDS011;7432;48.728;9.154;2023-01-13T04:55:27;3.63;;;3.33;;
14688;SDS011;7432;48.728;9.154;2023-01-13T04:57:59;4.83;;;3.37;;
14688;SDS011;7432;48.728;9.154;2023-01-13T05:00:26;3.80;;;3.30;;
14688;SDS011;7432;48.728;9.154;2023-01-13T05:02:53;3.70;;;3.40;;
14688;SDS011;7432;48.728;9.154;2023-01-13T05:05:19;3.67;;;3.40;;
14688;SDS011;7432;48.728;9.154;2023-01-13T05:07:45;4.10;;;3.80;;
14688;SDS011;7432;48.728;9.154;2023-01-13T05:10:13;4.13;;;3.80;;
14688;SDS011;7432;48.728;9.154;2023-01-13T05:12:39;4.10;;;3.80;;
14688;SDS011;7432;48.728;9.154;2023-01-13T05:15:24;3.93;;;3.63;;
14688;SDS011;7432;48.728;9.154;2023-01-13T05:18:08;4.00;;;3.70;;
14688;SDS011;7432;48.728;9.154;2023-01-13T05:20:34;3.40;;;3.10;;
14688;SDS011;7432;48.728;9.154;2023-01-13T05:23:01;3.60;;;3.40;;
14688;SDS011;7432;48.728;9.154;2023-01-13T05:25:57;3.77;;;3.47;;
14688;SDS011;7432;48.728;9.154;2023-01-13T05:28:24;3.03;;;2.83;;
14688;SDS011;7432;48.728;9.154;2023-01-13T05:30:50;4.37;;;3.50;;
14688;SDS011;7432;48.728;9.154;2023-01-13T05:33:17;3.83;;;3.57;;
14688;SDS011;7432;48.728;9.154;2023-01-13T05:35:46;3.40;;;3.20;;
14688;SDS011;7432;48.728;9.154;2023-01-13T05:38:13;3.63;;;3.43;;
14688;SDS011;7432;48.728;9.154;2023-01-13T05:40:40;3.30;;;3.10;;
14688;SDS011;7432;48.728;9.154;2023-01-13T05:43:25;3.80;;;3.50;;
14688;SDS011;7432;48.728;9.154;2023-01-13T05:45:55;3.83;;;3.63;;
14688;SDS011;7432;48.728;9.154;2023-01-13T05:48:23;3.30;;;3.20;;
14688;SDS011;7432;48.728;9.154;2023-01-13T05:50:51;3.50;;;3.30;;
14688;SDS011;7432;48.728;9.154;2023-01-13T05:53:18;4.03;;;3.73;;
14688;SDS011;7432;48.728;9.154;2023-01-13T05:55:46;3.77;;;3.47;;
14688;SDS011;7432;48.728;9.154;2023-01-13T05:58:13;3.80;;;3.60;;
14688;SDS011;7432;48.728;9.154;2023-01-13T06:00:42;3.17;;;2.97;;
14688;SDS011;7432;48.728;9.154;2023-01-13T06:03:09;3.77;;;3.57;;
14688;SDS011;7432;48.728;9.154;2023-01-13T06:05:36;3.33;;;3.13;;
14688;SDS011;7432;48.728;9.154;2023-01-13T06:08:03;3.57;;;3.37;;
14688;SDS011;7432;48.728;9.154;2023-01-13T06:10:30;3.67;;;3.37;;
14688;SDS011;7432;48.728;9.154;2023-01-13T06:12:57;3.80;;;3.60;;
14688;SDS011;7432;48.728;9.154;2023-01-13T06:15:23;4.30;;;3.90;;
14688;SDS011;7432;48.728;9.154;2023-01-13T06:17:51;3.60;;;3.40;;
14688;SDS011;7432;48.728;9.154;2023-01-13T06:20:18;3.50;;;3.30;;
14688;SDS011;7432;48.728;9.154;2023-01-13T06:22:46;4.00;;;3.80;;
14688;SDS011;7432;48.728;9.154;2023-01-13T06:25:16;3.60;;;3.30;;
14688;SDS011;7432;48.728;9.154;2023-01-13T06:27:49;3.70;;;3.40;;
14688;SDS011;7432;48.728;9.154;2023-01-13T06:30:16;3.70;;;3.50;;
14688;SDS011;7432;48.728;9.154;2023-01-13T06:32:43;3.43;;;3.20;;
14688;SDS011;7432;48.728;9.154;2023-01-13T06:35:16;3.20;;;3.10;;
14688;SDS011;7432;48.728;9.154;2023-01-13T06:37:45;3.57;;;3.37;;
14688;SDS011;7432;48.728;9.154;2023-01-13T06:40:14;3.47;;;3.27;;
14688;SDS011;7432;48.728;9.154;2023-01-13T06:42:42;3.77;;;3.57;;
14688;SDS011;7432;48.728;9.154;2023-01-13T06:45:37;3.87;;;3.47;;
14688;SDS011;7432;48.728;9.154;2023-01-13T06:48:04;3.00;;;2.83;;
14688;SDS011;7432;48.728;9.154;2023-01-13T06:50:33;3.10;;;2.90;;
14688;SDS011;7432;48.728;9.154;2023-01-13T06:52:59;3.10;;;3.00;;
14688;SDS011;7432;48.728;9.154;2023-01-13T06:55:25;2.70;;;2.60;;
14688;SDS011;7432;48.728;9.154;2023-01-13T06:57:53;3.40;;;3.30;;
14688;SDS011;7432;48.728;9.154;2023-01-13T07:00:23;3.43;;;3.30;;
14688;SDS011;7432;48.728;9.154;2023-01-13T07:02:51;3.67;;;3.37;;
14688;SDS011;7432;48.728;9.154;2023-01-13T07:05:17;3.20;;;3.10;;
14688;SDS011;7432;48.728;9.154;2023-01-13T07:07:46;3.30;;;3.10;;
14688;SDS011;7432;48.728;9.154;2023-01-13T07:10:13;3.40;;;3.20;;
14688;SDS011;7432;48.728;9.154;2023-01-13T07:12:46;3.00;;;2.90;;
14688;SDS011;7432;48.728;9.154;2023-01-13T07:15:30;3.20;;;3.00;;
14688;SDS011;7432;48.728;9.154;2023-01-13T07:17:57;2.87;;;2.70;;
14688;SDS011;7432;48.728;9.154;2023-01-13T07:20:24;3.47;;;3.27;;
14688;SDS011;7432;48.728;9.154;2023-01-13T07:22:53;3.70;;;3.50;;
14688;SDS011;7432;48.728;9.154;2023-01-13T07:25:20;3.40;;;3.20;;
14688;SDS011;7432;48.728;9.154;2023-01-13T07:27:47;3.77;;;2.97;;
14688;SDS011;7432;48.728;9.154;2023-01-13T07:30:13;3.40;;;2.90;;
14688;SDS011;7432;48.728;9.154;2023-01-13T07:32:40;3.20;;;3.00;;
14688;SDS011;7432;48.728;9.154;2023-01-13T07:35:06;3.77;;;3.47;;
14688;SDS011;7432;48.728;9.154;2023-01-13T07:37:34;4.10;;;3.80;;
14688;SDS011;7432;48.728;9.154;2023-01-13T07:40:03;3.50;;;3.40;;
14688;SDS011;7432;48.728;9.154;2023-01-13T07:42:30;3.17;;;3.07;;
14688;SDS011;7432;48.728;9.154;2023-01-13T07:45:14;3.43;;;3.30;;
14688;SDS011;7432;48.728;9.154;2023-01-13T07:47:40;3.07;;;2.97;;
14688;SDS011;7432;48.728;9.154;2023-01-13T07:50:07;3.07;;;2.90;;
14688;SDS011;7432;48.728;9.154;2023-01-13T07:52:34;3.33;;;3.17;;
14688;SDS011;7432;48.728;9.154;2023-01-13T07:55:02;3.20;;;3.10;;
14688;SDS011;7432;48.728;9.154;2023-01-13T07:57:29;3.00;;;2.90;;
14688;SDS011;7432;48.728;9.154;2023-01-13T07:59:55;3.30;;;3.10;;
14688;SDS011;7432;48.728;9.154;2023-01-13T08:02:21;3.47;;;3.27;;
14688;SDS011;7432;48.728;9.154;2023-01-13T08:04:48;3.57;;;3.37;;
14688;SDS011;7432;48.728;9.154;2023-01-13T08:07:14;3.30;;;3.10;;
14688;SDS011;7432;48.728;9.154;2023-01-13T08:09:40;3.73;;;3.40;;
14688;SDS011;7432;48.728;9.154;2023-01-13T08:12:08;3.67;;;3.47;;
14688;SDS011;7432;48.728;9.154;2023-01-13T08:14:52;2.90;;;2.80;;
14688;SDS011;7432;48.728;9.154;2023-01-13T08:17:18;3.50;;;3.30;;
14688;SDS011;7432;48.728;9.154;2023-01-13T08:19:45;3.70;;;3.50;;
14688;SDS011;7432;48.728;9.154;2023-01-13T08:22:11;3.57;;;3.37;;
14688;SDS011;7432;48.728;9.154;2023-01-13T08:24:38;2.90;;;2.80;;
14688;SDS011;7432;48.728;9.154;2023-01-13T08:27:04;3.33;;;3.13;;
14688;SDS011;7432;48.728;9.154;2023-01-13T08:29:32;3.20;;;3.00;;
14688;SDS011;7432;48.728;9.154;2023-01-13T08:31:58;3.73;;;3.50;;
14688;SDS011;7432;48.728;9.154;2023-01-13T08:34:24;3.80;;;3.20;;
14688;SDS011;7432;48.728;9.154;2023-01-13T08:36:51;3.10;;;2.90;;
14688;SDS011;7432;48.728;9.154;2023-01-13T08:39:17;2.73;;;2.63;;
14688;SDS011;7432;48.728;9.154;2023-01-13T08:41:43;3.33;;;3.03;;
14688;SDS011;7432;48.728;9.154;2023-01-13T08:44:22;3.13;;;2.93;;
14688;SDS011;7432;48.728;9.154;2023-01-13T08:46:51;2.57;;;2.47;;
14688;SDS011;7432;48.728;9.154;2023-01-13T08:49:18;3.07;;;2.87;;
14688;SDS011;7432;48.728;9.154;2023-01-13T08:51:44;4.00;;;2.60;;
14688;SDS011;7432;48.728;9.154;2023-01-13T08:54:11;5.87;;;2.60;;
14688;SDS011;7432;48.728;9.154;2023-01-13T08:56:39;2.63;;;2.43;;
14688;SDS011;7432;48.728;9.154;2023-01-13T08:59:07;2.43;;;2.33;;
14688;SDS011;7432;48.728;9.154;2023-01-13T09:01:36;2.73;;;2.60;;
14688;SDS011;7432;48.728;9.154;2023-01-13T09:04:04;2.50;;;2.40;;
14688;SDS011;7432;48.728;9.154;2023-01-13T09:06:31;2.90;;;2.80;;
14688;SDS011;7432;48.728;9.154;2023-01-13T09:08:58;2.70;;;2.50;;
14688;SDS011;7432;48.728;9.154;2023-01-13T09:11:28;2.67;;;2.47;;
14688;SDS011;7432;48.728;9.154;2023-01-13T09:14:15;2.50;;;2.40;;
14688;SDS011;7432;48.728;9.154;2023-01-13T09:16:43;2.77;;;2.57;;
14688;SDS011;7432;48.728;9.154;2023-01-13T09:19:11;3.03;;;2.83;;
14688;SDS011;7432;48.728;9.154;2023-01-13T09:21:37;2.40;;;2.13;;
14688;SDS011;7432;48.728;9.154;2023-01-13T09:24:03;2.30;;;2.10;;
14688;SDS011;7432;48.728;9.154;2023-01-13T09:26:31;2.70;;;2.60;;
14688;SDS011;7432;48.728;9.154;2023-01-13T09:28:57;2.90;;;2.80;;
14688;SDS011;7432;48.728;9.154;2023-01-13T09:31:23;2.87;;;2.77;;
14688;SDS011;7432;48.728;9.154;2023-01-13T09:33:50;2.37;;;2.27;;
14688;SDS011;7432;48.728;9.154;2023-01-13T09:36:35;2.87;;;2.67;;
14688;SDS011;7432;48.728;9.154;2023-01-13T09:39:01;2.80;;;2.70;;
14688;SDS011;7432;48.728;9.154;2023-01-13T09:41:28;2.63;;;2.53;;
14688;SDS011;7432;48.728;9.154;2023-01-13T09:44:18;2.43;;;2.33;;
14688;SDS011;7432;48.728;9.154;2023-01-13T09:46:51;2.73;;;2.53;;
14688;SDS011;7432;48.728;9.154;2023-01-13T09:49:22;2.90;;;2.70;;
14688;SDS011;7432;48.728;9.154;2023-01-13T09:51:54;2.80;;;2.70;;
14688;SDS011;7432;48.728;9.154;2023-01-13T09:54:29;2.93;;;2.73;;
14688;SDS011;7432;48.728;9.154;2023-01-13T09:56:59;2.47;;;2.33;;
14688;SDS011;7432;48.728;9.154;2023-01-13T09:59:26;2.90;;;2.80;;
14688;SDS011;7432;48.728;9.154;2023-01-13T10:02:01;2.80;;;2.60;;
14688;SDS011;7432;48.728;9.154;2023-01-13T10:04:40;2.90;;;2.70;;
14688;SDS011;7432;48.728;9.154;2023-01-13T10:07:10;3.07;;;2.77;;
14688;SDS011;7432;48.728;9.154;2023-01-13T10:09:42;3.30;;;3.07;;
14688;SDS011;7432;48.728;9.154;2023-01-13T10:12:15;3.27;;;3.07;;
14688;SDS011;7432;48.728;9.154;2023-01-13T10:15:05;2.97;;;2.77;;
14688;SDS011;7432;48.728;9.154;2023-01-13T10:17:40;2.70;;;2.57;;
14688;SDS011;7432;48.728;9.154;2023-01-13T10:20:11;2.60;;;2.40;;
14688;SDS011;7432;48.728;9.154;2023-01-13T10:22:49;2.83;;;2.63;;
14688;SDS011;7432;48.728;9.154;2023-01-13T10:25:26;3.00;;;2.77;;
14688;SDS011;7432;48.728;9.154;2023-01-13T10:28:06;2.70;;;2.50;;
14688;SDS011;7432;48.728;9.154;2023-01-13T10:30:35;3.57;;;2.90;;
14688;SDS011;7432;48.728;9.154;2023-01-13T10:33:07;2.70;;;2.50;;
14688;SDS011;7432;48.728;9.154;2023-01-13T10:35:52;3.17;;;2.87;;
14688;SDS011;7432;48.728;9.154;2023-01-13T10:38:25;3.00;;;2.80;;
14688;SDS011;7432;48.728;9.154;2023-01-13T10:40:55;2.80;;;2.60;;
14688;SDS011;7432;48.728;9.154;2023-01-13T10:43:23;2.93;;;2.83;;
14688;SDS011;7432;48.728;9.154;2023-01-13T10:45:51;3.67;;;3.10;;
14688;SDS011;7432;48.728;9.154;2023-01-13T10:48:21;3.03;;;2.90;;
14688;SDS011;7432;48.728;9.154;2023-01-13T10:50:47;7.07;;;3.17;;
14688;SDS011;7432;48.728;9.154;2023-01-13T10:53:17;3.10;;;2.90;;
14688;SDS011;7432;48.728;9.154;2023-01-13T10:55:59;3.33;;;3.00;;
14688;SDS011;7432;48.728;9.154;2023-01-13T10:58:26;3.07;;;2.87;;
14688;SDS011;7432;48.728;9.154;2023-01-13T11:01:00;2.73;;;2.53;;
14688;SDS011;7432;48.728;9.154;2023-01-13T11:03:33;2.80;;;2.70;;
14688;SDS011;7432;48.728;9.154;2023-01-13T11:06:05;2.77;;;2.67;;
14688;SDS011;7432;48.728;9.154;2023-01-13T11:08:39;2.73;;;2.53;;
14688;SDS011;7432;48.728;9.154;2023-01-13T11:11:24;3.13;;;2.90;;
14688;SDS011;7432;48.728;9.154;2023-01-13T11:14:03;2.80;;;2.70;;
14688;SDS011;7432;48.728;9.154;2023-01-13T11:16:51;2.97;;;2.77;;
14688;SDS011;7432;48.728;9.154;2023-01-13T11:19:21;2.53;;;2.43;;
14688;SDS011;7432;48.728;9.154;2023-01-13T11:21:53;3.03;;;2.73;;
14688;SDS011;7432;48.728;9.154;2023-01-13T11:24:25;3.10;;;2.83;;
14688;SDS011;7432;48.728;9.154;2023-01-13T11:27:03;3.17;;;2.90;;
14688;SDS011;7432;48.728;9.154;2023-01-13T11:29:37;2.70;;;2.50;;
14688;SDS011;7432;48.728;9.154;2023-01-13T11:32:10;3.03;;;2.70;;
14688;SDS011;7432;48.728;9.154;2023-01-13T11:34:41;3.50;;;3.00;;
14688;SDS011;7432;48.728;9.154;2023-01-13T11:37:13;2.47;;;2.30;;
14688;SDS011;7432;48.728;9.154;2023-01-13T11:39:47;2.60;;;2.40;;
14688;SDS011;7432;48.728;9.154;2023-01-13T11:42:22;2.70;;;2.60;;
14688;SDS011;7432;48.728;9.154;2023-01-13T11:44:58;2.70;;;2.60;;
14688;SDS011;7432;48.728;9.154;2023-01-13T11:47:28;3.23;;;3.03;;
14688;SDS011;7432;48.728;9.154;2023-01-13T11:49:57;2.70;;;2.50;;
14688;SDS011;7432;48.728;9.154;2023-01-13T11:52:26;3.40;;;3.10;;
14688;SDS011;7432;48.728;9.154;2023-01-13T11:55:13;2.90;;;2.80;;
14688;SDS011;7432;48.728;9.154;2023-01-13T11:57:54;3.10;;;2.90;;
14688;SDS011;7432;48.728;9.154;2023-01-13T12:00:35;3.23;;;2.93;;
14688;SDS011;7432;48.728;9.154;2023-01-13T12:03:18;2.93;;;2.77;;
14688;SDS011;7432;48.728;9.154;2023-01-13T12:05:59;3.07;;;2.87;;
14688;SDS011;7432;48.728;9.154;2023-01-13T12:08:38;4.30;;;3.20;;
14688;SDS011;7432;48.728;9.154;2023-01-13T12:11:17;3.00;;;2.80;;
14688;SDS011;7432;48.728;9.154;2023-01-13T12:13:59;5.13;;;3.20;;
14688;SDS011;7432;48.728;9.154;2023-01-13T12:16:36;3.60;;;3.33;;
14688;SDS011;7432;48.728;9.154;2023-01-13T12:22:01;3.17;;;2.97;;
14688;SDS011;7432;48.728;9.154;2023-01-13T12:24:34;3.33;;;3.03;;
14688;SDS011;7432;48.728;9.154;2023-01-13T12:27:09;3.37;;;3.03;;
14688;SDS011;7432;48.728;9.154;2023-01-13T12:29:41;3.50;;;3.20;;
14688;SDS011;7432;48.728;9.154;2023-01-13T12:32:12;3.17;;;2.97;;
14688;SDS011;7432;48.728;9.154;2023-01-13T12:34:47;3.10;;;2.90;;
14688;SDS011;7432;48.728;9.154;2023-01-13T12:37:20;3.80;;;3.07;;
14688;SDS011;7432;48.728;9.154;2023-01-13T12:39:57;3.07;;;2.87;;
14688;SDS011;7432;48.728;9.154;2023-01-13T12:42:45;4.77;;;3.30;;
14688;SDS011;7432;48.728;9.154;2023-01-13T12:45:35;3.47;;;3.20;;
14688;SDS011;7432;48.728;9.154;2023-01-13T12:48:01;6.37;;;3.20;;
14688;SDS011;7432;48.728;9.154;2023-01-13T12:50:36;5.83;;;3.60;;
14688;SDS011;7432;48.728;9.154;2023-01-13T13:02:24;4.67;;;3.70;;
14688;SDS011;7432;48.728;9.154;2023-01-13T13:04:53;6.67;;;3.83;;
14688;SDS011;7432;48.728;9.154;2023-01-13T13:07:23;6.20;;;4.20;;
14688;SDS011;7432;48.728;9.154;2023-01-13T13:09:59;10.30;;;4.00;;
14688;SDS011;7432;48.728;9.154;2023-01-13T13:12:31;4.53;;;3.83;;
14688;SDS011;7432;48.728;9.154;2023-01-13T13:15:36;6.07;;;3.60;;
14688;SDS011;7432;48.728;9.154;2023-01-13T13:18:18;5.27;;;3.70;;
14688;SDS011;7432;48.728;9.154;2023-01-13T13:20:59;4.90;;;4.07;;
14688;SDS011;7432;48.728;9.154;2023-01-13T13:23:33;7.17;;;4.40;;
14688;SDS011;7432;48.728;9.154;2023-01-13T13:26:26;8.97;;;4.87;;
14688;SDS011;7432;48.728;9.154;2023-01-13T13:32:22;6.30;;;4.47;;
14688;SDS011;7432;48.728;9.154;2023-01-13T13:35:03;6.73;;;3.90;;
14688;SDS011;7432;48.728;9.154;2023-01-13T13:37:45;4.57;;;4.10;;
14688;SDS011;7432;48.728;9.154;2023-01-13T13:40:38;4.67;;;3.47;;
14688;SDS011;7432;48.728;9.154;2023-01-13T13:43:24;5.53;;;3.60;;
14688;SDS011;7432;48.728;9.154;2023-01-13T13:46:20;4.00;;;3.70;;
14688;SDS011;7432;48.728;9.154;2023-01-13T13:49:06;6.30;;;4.37;;
14688;SDS011;7432;48.728;9.154;2023-01-13T13:51:34;6.67;;;3.70;;
14688;SDS011;7432;48.728;9.154;2023-01-13T13:54:04;5.43;;;3.37;;
14688;SDS011;7432;48.728;9.154;2023-01-13T13:56:38;4.87;;;3.63;;
14688;SDS011;7432;48.728;9.154;2023-01-13T13:59:09;7.50;;;3.87;;
14688;SDS011;7432;48.728;9.154;2023-01-13T14:01:37;6.97;;;4.43;;
14688;SDS011;7432;48.728;9.154;2023-01-13T14:04:10;5.07;;;4.20;;
14688;SDS011;7432;48.728;9.154;2023-01-13T14:06:49;8.23;;;4.60;;
14688;SDS011;7432;48.728;9.154;2023-01-13T14:09:17;5.80;;;3.53;;
14688;SDS011;7432;48.728;9.154;2023-01-13T14:11:53;5.17;;;4.33;;
14688;SDS011;7432;48.728;9.154;2023-01-13T14:14:21;7.53;;;3.87;;
14688;SDS011;7432;48.728;9.154;2023-01-13T14:16:48;4.43;;;4.03;;
14688;SDS011;7432;48.728;9.154;2023-01-13T14:19:28;4.83;;;3.87;;
14688;SDS011;7432;48.728;9.154;2023-01-13T14:21:56;4.33;;;3.83;;
14688;SDS011;7432;48.728;9.154;2023-01-13T14:24:24;4.87;;;3.80;;
14688;SDS011;7432;48.728;9.154;2023-01-13T14:26:51;5.93;;;3.53;;
14688;SDS011;7432;48.728;9.154;2023-01-13T14:29:18;4.20;;;3.43;;
14688;SDS011;7432;48.728;9.154;2023-01-13T14:31:47;4.97;;;3.60;;
14688;SDS011;7432;48.728;9.154;2023-01-13T14:34:14;3.70;;;3.40;;
14688;SDS011;7432;48.728;9.154;2023-01-13T14:36:42;3.90;;;3.37;;
14688;SDS011;7432;48.728;9.154;2023-01-13T14:39:25;4.10;;;3.30;;
14688;SDS011;7432;48.728;9.154;2023-01-13T14:41:59;7.03;;;3.87;;
14688;SDS011;7432;48.728;9.154;2023-01-13T14:44:26;5.57;;;3.60;;
14688;SDS011;7432;48.728;9.154;2023-01-13T14:46:55;3.73;;;3.37;;
14688;SDS011;7432;48.728;9.154;2023-01-13T14:49:25;4.33;;;2.90;;
14688;SDS011;7432;48.728;9.154;2023-01-13T14:52:04;7.60;;;4.30;;
14688;SDS011;7432;48.728;9.154;2023-01-13T14:54:41;3.80;;;3.50;;
14688;SDS011;7432;48.728;9.154;2023-01-13T14:57:11;4.90;;;3.50;;
14688;SDS011;7432;48.728;9.154;2023-01-13T14:59:42;3.97;;;3.53;;
14688;SDS011;7432;48.728;9.154;2023-01-13T15:11:02;4.90;;;3.47;;
14688;SDS011;7432;48.728;9.154;2023-01-13T15:13:31;3.93;;;3.40;;
14688;SDS011;7432;48.728;9.154;2023-01-13T15:16:12;4.70;;;3.43;;
14688;SDS011;7432;48.728;9.154;2023-01-13T15:18:41;4.07;;;3.60;;
14688;SDS011;7432;48.728;9.154;2023-01-13T15:21:08;3.77;;;3.43;;
14688;SDS011;7432;48.728;9.154;2023-01-13T15:23:36;4.43;;;3.40;;
14688;SDS011;7432;48.728;9.154;2023-01-13T15:26:08;5.17;;;3.40;;
14688;SDS011;7432;48.728;9.154;2023-01-13T15:28:42;4.47;;;3.70;;
14688;SDS011;7432;48.728;9.154;2023-01-13T15:31:08;3.80;;;3.43;;
14688;SDS011;7432;48.728;9.154;2023-01-13T15:33:35;4.10;;;3.40;;
14688;SDS011;7432;48.728;9.154;2023-01-13T15:36:01;3.83;;;3.43;;
14688;SDS011;7432;48.728;9.154;2023-01-13T15:38:28;3.93;;;3.60;;
14688;SDS011;7432;48.728;9.154;2023-01-13T15:40:55;3.63;;;2.67;;
14688;SDS011;7432;48.728;9.154;2023-01-13T15:43:22;5.63;;;3.53;;
14688;SDS011;7432;48.728;9.154;2023-01-13T15:46:09;5.03;;;3.53;;
14688;SDS011;7432;48.728;9.154;2023-01-13T15:48:59;4.87;;;3.60;;
14688;SDS011;7432;48.728;9.154;2023-01-13T15:51:32;4.63;;;3.20;;